sensor_id;sensor_type;location;lat;lon;timestamp;pressure;altitude;pressure_sealevel;temperature;humidity
36798;BME280;22748;8.426;99.512;2023-03-19T00:00:49;100650.44;;;28.10;56.95
36798;BME280;22748;8.426;99.512;2023-03-19T00:03:20;100654.56;;;28.13;56.60
36798;BME280;22748;8.426;99.512;2023-03-19T00:05:54;100650.03;;;28.14;57.33
36798;BME280;22748;8.426;99.512;2023-03-19T00:08:26;100656.03;;;28.16;57.04
36798;BME280;22748;8.426;99.512;2023-03-19T00:10:56;100666.56;;;28.17;57.53
36798;BME280;22748;8.426;99.512;2023-03-19T00:13:28;100666.78;;;28.16;57.42
36798;BME280;22748;8.426;99.512;2023-03-19T00:16:00;100666.34;;;28.12;57.29
36798;BME280;22748;8.426;99.512;2023-03-19T00:18:32;100687.19;;;28.10;58.23
36798;BME280;22748;8.426;99.512;2023-03-19T00:21:03;100692.38;;;28.12;58.17
36798;BME280;22748;8.426;99.512;2023-03-19T00:23:36;100702.69;;;28.15;58.31
36798;BME280;22748;8.426;99.512;2023-03-19T00:26:16;100704.38;;;28.16;58.30
36798;BME280;22748;8.426;99.512;2023-03-19T00:28:48;100696.31;;;28.16;57.90
36798;BME280;22748;8.426;99.512;2023-03-19T00:31:19;100700.44;;;28.18;58.39
36798;BME280;22748;8.426;99.512;2023-03-19T00:33:49;100700.22;;;28.20;58.82
36798;BME280;22748;8.426;99.512;2023-03-19T00:36:20;100710.56;;;28.23;58.51
36798;BME280;22748;8.426;99.512;2023-03-19T00:38:51;100711.41;;;28.23;58.30
36798;BME280;22748;8.426;99.512;2023-03-19T00:41:23;100720.06;;;28.25;58.20
36798;BME280;22748;8.426;99.512;2023-03-19T00:43:58;100707.69;;;28.24;58.50
36798;BME280;22748;8.426;99.512;2023-03-19T00:46:28;100716.16;;;28.28;58.99
36798;BME280;22748;8.426;99.512;2023-03-19T00:48:58;100719.47;;;28.30;58.83
36798;BME280;22748;8.426;99.512;2023-03-19T00:51:29;100726.50;;;28.31;59.39
36798;BME280;22748;8.426;99.512;2023-03-19T00:54:00;100728.13;;;28.25;59.45
36798;BME280;22748;8.426;99.512;2023-03-19T00:56:31;100729.13;;;28.18;59.81
36798;BME280;22748;8.426;99.512;2023-03-19T00:59:02;100728.47;;;28.02;59.51
36798;BME280;22748;8.426;99.512;2023-03-19T01:01:34;100731.78;;;28.04;60.22
36798;BME280;22748;8.426;99.512;2023-03-19T01:04:06;100735.34;;;28.12;60.66
36798;BME280;22748;8.426;99.512;2023-03-19T01:06:37;100743.19;;;28.20;60.90
36798;BME280;22748;8.426;99.512;2023-03-19T01:09:07;100740.50;;;28.26;60.31
36798;BME280;22748;8.426;99.512;2023-03-19T01:11:39;100745.09;;;28.33;60.01
36798;BME280;22748;8.426;99.512;2023-03-19T01:14:20;100744.09;;;28.40;59.64
36798;BME280;22748;8.426;99.512;2023-03-19T01:16:54;100752.97;;;28.47;59.76
36798;BME280;22748;8.426;99.512;2023-03-19T01:19:24;100757.72;;;28.39;60.26
36798;BME280;22748;8.426;99.512;2023-03-19T01:22:00;100766.38;;;28.34;60.54
36798;BME280;22748;8.426;99.512;2023-03-19T01:24:32;100769.47;;;28.31;61.02
36798;BME280;22748;8.426;99.512;2023-03-19T01:27:02;100775.06;;;28.36;61.21
36798;BME280;22748;8.426;99.512;2023-03-19T01:29:36;100782.94;;;28.44;60.42
36798;BME280;22748;8.426;99.512;2023-03-19T01:32:07;100786.06;;;28.48;60.95
36798;BME280;22748;8.426;99.512;2023-03-19T01:34:44;100785.88;;;28.56;60.80
36798;BME280;22748;8.426;99.512;2023-03-19T01:37:15;100784.88;;;28.64;60.66
36798;BME280;22748;8.426;99.512;2023-03-19T01:39:44;100791.50;;;28.68;60.13
36798;BME280;22748;8.426;99.512;2023-03-19T01:42:15;100793.34;;;28.74;60.59
36798;BME280;22748;8.426;99.512;2023-03-19T01:44:48;100786.34;;;28.66;60.49
36798;BME280;22748;8.426;99.512;2023-03-19T01:47:22;100783.03;;;28.71;60.76
36798;BME280;22748;8.426;99.512;2023-03-19T01:49:56;100775.59;;;28.80;60.54
36798;BME280;22748;8.426;99.512;2023-03-19T01:52:31;100780.16;;;28.86;60.28
36798;BME280;22748;8.426;99.512;2023-03-19T01:55:05;100783.88;;;28.91;59.95
36798;BME280;22748;8.426;99.512;2023-03-19T01:57:36;100785.94;;;28.96;59.88
36798;BME280;22748;8.426;99.512;2023-03-19T02:00:11;100784.72;;;28.99;59.34
36798;BME280;22748;8.426;99.512;2023-03-19T02:02:43;100789.47;;;29.03;59.70
36798;BME280;22748;8.426;99.512;2023-03-19T02:05:17;100790.53;;;29.09;59.65
36798;BME280;22748;8.426;99.512;2023-03-19T02:07:55;100796.53;;;29.18;59.17
36798;BME280;22748;8.426;99.512;2023-03-19T02:10:28;100789.50;;;29.23;58.89
36798;BME280;22748;8.426;99.512;2023-03-19T02:13:00;100785.16;;;29.29;58.14
36798;BME280;22748;8.426;99.512;2023-03-19T02:15:34;100795.31;;;29.33;58.43
36798;BME280;22748;8.426;99.512;2023-03-19T02:18:05;100799.81;;;29.40;58.34
36798;BME280;22748;8.426;99.512;2023-03-19T02:20:45;100795.69;;;29.37;57.73
36798;BME280;22748;8.426;99.512;2023-03-19T02:23:29;100788.03;;;29.41;57.77
36798;BME280;22748;8.426;99.512;2023-03-19T02:26:06;100789.47;;;29.50;57.89
36798;BME280;22748;8.426;99.512;2023-03-19T02:28:40;100794.66;;;29.51;58.08
36798;BME280;22748;8.426;99.512;2023-03-19T02:31:10;100789.25;;;29.58;58.13
36798;BME280;22748;8.426;99.512;2023-03-19T02:33:57;100795.06;;;29.55;57.66
36798;BME280;22748;8.426;99.512;2023-03-19T02:36:28;100791.34;;;29.56;58.03
36798;BME280;22748;8.426;99.512;2023-03-19T02:39:02;100785.13;;;29.69;57.77
36798;BME280;22748;8.426;99.512;2023-03-19T02:41:37;100787.19;;;29.73;57.70
36798;BME280;22748;8.426;99.512;2023-03-19T02:44:11;100788.84;;;29.81;57.26
36798;BME280;22748;8.426;99.512;2023-03-19T02:46:46;100780.75;;;29.88;57.06
36798;BME280;22748;8.426;99.512;2023-03-19T02:49:18;100788.38;;;29.91;57.20
36798;BME280;22748;8.426;99.512;2023-03-19T02:51:48;100787.94;;;29.94;57.23
36798;BME280;22748;8.426;99.512;2023-03-19T02:54:22;100777.78;;;29.96;57.15
36798;BME280;22748;8.426;99.512;2023-03-19T02:56:55;100781.31;;;29.97;56.53
36798;BME280;22748;8.426;99.512;2023-03-19T02:59:26;100790.41;;;30.02;56.48
36798;BME280;22748;8.426;99.512;2023-03-19T03:01:56;100786.25;;;30.06;56.80
36798;BME280;22748;8.426;99.512;2023-03-19T03:04:27;100786.66;;;30.10;56.75
36798;BME280;22748;8.426;99.512;2023-03-19T03:07:00;100788.72;;;30.14;56.10
36798;BME280;22748;8.426;99.512;2023-03-19T03:09:32;100783.13;;;30.16;56.46
36798;BME280;22748;8.426;99.512;2023-03-19T03:12:06;100782.84;;;30.31;55.78
36798;BME280;22748;8.426;99.512;2023-03-19T03:14:37;100778.44;;;30.43;55.70
36798;BME280;22748;8.426;99.512;2023-03-19T03:17:09;100780.69;;;30.46;55.62
36798;BME280;22748;8.426;99.512;2023-03-19T03:19:44;100778.59;;;30.48;55.92
36798;BME280;22748;8.426;99.512;2023-03-19T03:22:16;100765.69;;;30.57;55.30
36798;BME280;22748;8.426;99.512;2023-03-19T03:24:45;100766.59;;;30.51;55.43
36798;BME280;22748;8.426;99.512;2023-03-19T03:27:17;100762.75;;;30.65;55.04
36798;BME280;22748;8.426;99.512;2023-03-19T03:29:47;100763.91;;;30.76;55.02
36798;BME280;22748;8.426;99.512;2023-03-19T03:32:18;100756.00;;;30.81;54.76
36798;BME280;22748;8.426;99.512;2023-03-19T03:34:50;100756.81;;;30.88;54.41
36798;BME280;22748;8.426;99.512;2023-03-19T03:37:21;100763.25;;;30.87;54.55
36798;BME280;22748;8.426;99.512;2023-03-19T03:39:56;100768.88;;;30.86;54.14
36798;BME280;22748;8.426;99.512;2023-03-19T03:42:38;100760.72;;;30.92;54.04
36798;BME280;22748;8.426;99.512;2023-03-19T03:45:11;100760.44;;;31.01;52.35
36798;BME280;22748;8.426;99.512;2023-03-19T03:47:41;100755.81;;;31.08;52.08
36798;BME280;22748;8.426;99.512;2023-03-19T03:50:12;100753.88;;;31.15;52.00
36798;BME280;22748;8.426;99.512;2023-03-19T03:52:43;100754.44;;;31.24;51.43
36798;BME280;22748;8.426;99.512;2023-03-19T03:55:15;100748.97;;;31.30;51.70
36798;BME280;22748;8.426;99.512;2023-03-19T03:58:03;100746.41;;;31.35;51.43
36798;BME280;22748;8.426;99.512;2023-03-19T04:00:34;100747.63;;;31.40;51.50
36798;BME280;22748;8.426;99.512;2023-03-19T04:03:07;100742.66;;;31.43;51.06
36798;BME280;22748;8.426;99.512;2023-03-19T04:05:38;100731.78;;;31.50;50.25
36798;BME280;22748;8.426;99.512;2023-03-19T04:08:09;100730.28;;;31.54;50.26
36798;BME280;22748;8.426;99.512;2023-03-19T04:10:41;100744.72;;;31.60;50.37
36798;BME280;22748;8.426;99.512;2023-03-19T04:13:14;100731.63;;;31.63;50.14
36798;BME280;22748;8.426;99.512;2023-03-19T04:15:44;100723.97;;;31.78;49.95
36798;BME280;22748;8.426;99.512;2023-03-19T04:18:14;100735.50;;;31.86;49.80
36798;BME280;22748;8.426;99.512;2023-03-19T04:20:44;100719.69;;;31.89;49.59
36798;BME280;22748;8.426;99.512;2023-03-19T04:23:15;100714.75;;;31.86;49.52
36798;BME280;22748;8.426;99.512;2023-03-19T04:25:45;100702.13;;;31.98;49.94
36798;BME280;22748;8.426;99.512;2023-03-19T04:28:19;100701.44;;;32.03;49.61
36798;BME280;22748;8.426;99.512;2023-03-19T04:30:49;100714.94;;;32.03;49.67
36798;BME280;22748;8.426;99.512;2023-03-19T04:33:21;100710.72;;;32.07;49.52
36798;BME280;22748;8.426;99.512;2023-03-19T04:35:52;100708.63;;;32.09;49.78
36798;BME280;22748;8.426;99.512;2023-03-19T04:38:24;100705.50;;;32.12;49.17
36798;BME280;22748;8.426;99.512;2023-03-19T04:40:55;100702.31;;;32.15;49.09
36798;BME280;22748;8.426;99.512;2023-03-19T04:43:29;100701.41;;;32.22;49.36
36798;BME280;22748;8.426;99.512;2023-03-19T04:46:03;100691.78;;;32.26;48.85
36798;BME280;22748;8.426;99.512;2023-03-19T04:48:37;100689.44;;;32.29;49.07
36798;BME280;22748;8.426;99.512;2023-03-19T04:51:09;100687.09;;;32.33;48.84
36798;BME280;22748;8.426;99.512;2023-03-19T04:53:39;100679.94;;;32.38;49.25
36798;BME280;22748;8.426;99.512;2023-03-19T04:56:10;100665.03;;;32.48;48.75
36798;BME280;22748;8.426;99.512;2023-03-19T04:58:44;100653.06;;;32.55;49.09
36798;BME280;22748;8.426;99.512;2023-03-19T05:01:16;100666.41;;;32.69;48.83
36798;BME280;22748;8.426;99.512;2023-03-19T05:03:46;100663.81;;;32.62;48.75
36798;BME280;22748;8.426;99.512;2023-03-19T05:06:17;100660.03;;;32.63;48.40
36798;BME280;22748;8.426;99.512;2023-03-19T05:08:49;100661.78;;;32.57;48.33
36798;BME280;22748;8.426;99.512;2023-03-19T05:11:21;100644.63;;;32.64;48.38
36798;BME280;22748;8.426;99.512;2023-03-19T05:13:53;100639.69;;;32.61;48.36
36798;BME280;22748;8.426;99.512;2023-03-19T05:16:25;100640.16;;;32.57;48.71
36798;BME280;22748;8.426;99.512;2023-03-19T05:18:57;100639.59;;;32.67;48.58
36798;BME280;22748;8.426;99.512;2023-03-19T05:21:29;100639.13;;;32.82;47.97
36798;BME280;22748;8.426;99.512;2023-03-19T05:24:00;100630.63;;;32.90;47.68
36798;BME280;22748;8.426;99.512;2023-03-19T05:26:31;100625.94;;;32.97;47.68
36798;BME280;22748;8.426;99.512;2023-03-19T05:29:04;100621.47;;;32.91;47.65
36798;BME280;22748;8.426;99.512;2023-03-19T05:31:38;100614.53;;;32.95;47.93
36798;BME280;22748;8.426;99.512;2023-03-19T05:34:08;100621.69;;;33.02;47.74
36798;BME280;22748;8.426;99.512;2023-03-19T05:36:39;100610.28;;;32.99;47.67
36798;BME280;22748;8.426;99.512;2023-03-19T05:39:10;100593.56;;;33.03;47.33
36798;BME280;22748;8.426;99.512;2023-03-19T05:41:41;100592.66;;;33.09;46.79
36798;BME280;22748;8.426;99.512;2023-03-19T05:44:15;100589.94;;;33.09;47.24
36798;BME280;22748;8.426;99.512;2023-03-19T05:46:45;100588.06;;;33.09;47.23
36798;BME280;22748;8.426;99.512;2023-03-19T05:49:16;100593.47;;;33.09;46.62
36798;BME280;22748;8.426;99.512;2023-03-19T05:51:48;100581.19;;;33.18;46.96
36798;BME280;22748;8.426;99.512;2023-03-19T05:54:20;100584.34;;;33.27;46.88
36798;BME280;22748;8.426;99.512;2023-03-19T05:56:51;100575.09;;;33.23;46.46
36798;BME280;22748;8.426;99.512;2023-03-19T05:59:24;100574.97;;;33.18;46.33
36798;BME280;22748;8.426;99.512;2023-03-19T06:01:56;100563.06;;;33.31;46.14
36798;BME280;22748;8.426;99.512;2023-03-19T06:04:28;100559.03;;;33.33;46.10
36798;BME280;22748;8.426;99.512;2023-03-19T06:06:59;100545.13;;;33.42;45.96
36798;BME280;22748;8.426;99.512;2023-03-19T06:09:31;100551.47;;;33.47;46.02
36798;BME280;22748;8.426;99.512;2023-03-19T06:12:03;100541.59;;;33.41;46.13
36798;BME280;22748;8.426;99.512;2023-03-19T06:14:36;100544.88;;;33.43;46.00
36798;BME280;22748;8.426;99.512;2023-03-19T06:17:07;100534.38;;;33.47;45.54
36798;BME280;22748;8.426;99.512;2023-03-19T06:19:38;100529.81;;;33.47;45.29
36798;BME280;22748;8.426;99.512;2023-03-19T06:22:10;100522.50;;;33.48;44.71
36798;BME280;22748;8.426;99.512;2023-03-19T06:24:42;100517.81;;;33.43;44.84
36798;BME280;22748;8.426;99.512;2023-03-19T06:27:13;100511.16;;;33.51;44.91
36798;BME280;22748;8.426;99.512;2023-03-19T06:29:48;100499.25;;;33.64;44.32
36798;BME280;22748;8.426;99.512;2023-03-19T06:32:21;100492.63;;;33.71;45.01
36798;BME280;22748;8.426;99.512;2023-03-19T06:34:52;100485.06;;;33.73;44.64
36798;BME280;22748;8.426;99.512;2023-03-19T06:37:25;100481.44;;;33.85;44.38
36798;BME280;22748;8.426;99.512;2023-03-19T06:39:57;100486.69;;;33.91;44.45
36798;BME280;22748;8.426;99.512;2023-03-19T06:42:27;100483.00;;;33.97;44.85
36798;BME280;22748;8.426;99.512;2023-03-19T06:45:00;100480.31;;;33.97;45.21
36798;BME280;22748;8.426;99.512;2023-03-19T06:47:30;100478.16;;;33.99;44.91
36798;BME280;22748;8.426;99.512;2023-03-19T06:50:03;100474.03;;;33.97;44.55
36798;BME280;22748;8.426;99.512;2023-03-19T06:52:34;100467.50;;;33.93;44.62
36798;BME280;22748;8.426;99.512;2023-03-19T06:55:04;100463.06;;;33.87;44.89
36798;BME280;22748;8.426;99.512;2023-03-19T06:57:40;100460.75;;;33.95;44.18
36798;BME280;22748;8.426;99.512;2023-03-19T07:00:13;100447.78;;;33.97;44.35
36798;BME280;22748;8.426;99.512;2023-03-19T07:02:45;100455.47;;;34.06;44.32
36798;BME280;22748;8.426;99.512;2023-03-19T07:05:17;100441.88;;;34.17;43.94
36798;BME280;22748;8.426;99.512;2023-03-19T07:07:52;100436.28;;;34.24;44.34
36798;BME280;22748;8.426;99.512;2023-03-19T07:10:23;100437.59;;;34.21;44.34
36798;BME280;22748;8.426;99.512;2023-03-19T07:12:56;100423.13;;;34.16;43.88
36798;BME280;22748;8.426;99.512;2023-03-19T07:15:30;100416.72;;;34.05;44.15
36798;BME280;22748;8.426;99.512;2023-03-19T07:18:03;100404.25;;;34.04;44.45
36798;BME280;22748;8.426;99.512;2023-03-19T07:20:34;100395.28;;;34.04;44.71
36798;BME280;22748;8.426;99.512;2023-03-19T07:23:04;100401.22;;;34.00;44.70
36798;BME280;22748;8.426;99.512;2023-03-19T07:25:35;100394.28;;;34.10;44.43
36798;BME280;22748;8.426;99.512;2023-03-19T07:28:07;100389.81;;;34.15;44.41
36798;BME280;22748;8.426;99.512;2023-03-19T07:30:40;100381.72;;;34.20;44.52
36798;BME280;22748;8.426;99.512;2023-03-19T07:33:11;100378.03;;;34.27;44.54
36798;BME280;22748;8.426;99.512;2023-03-19T07:35:43;100370.47;;;34.29;44.39
36798;BME280;22748;8.426;99.512;2023-03-19T07:38:12;100375.31;;;34.27;44.15
36798;BME280;22748;8.426;99.512;2023-03-19T07:40:43;100371.22;;;34.24;44.34
36798;BME280;22748;8.426;99.512;2023-03-19T07:43:15;100369.44;;;34.35;43.91
36798;BME280;22748;8.426;99.512;2023-03-19T07:45:49;100373.16;;;34.29;43.87
36798;BME280;22748;8.426;99.512;2023-03-19T07:48:19;100376.75;;;34.12;44.22
36798;BME280;22748;8.426;99.512;2023-03-19T07:50:50;100367.31;;;34.15;44.65
36798;BME280;22748;8.426;99.512;2023-03-19T07:53:20;100368.59;;;34.12;44.55
36798;BME280;22748;8.426;99.512;2023-03-19T07:55:51;100361.22;;;34.08;44.13
36798;BME280;22748;8.426;99.512;2023-03-19T07:58:24;100359.44;;;34.13;44.04
36798;BME280;22748;8.426;99.512;2023-03-19T08:01:00;100363.75;;;34.14;44.23
36798;BME280;22748;8.426;99.512;2023-03-19T08:03:30;100346.78;;;34.19;44.26
36798;BME280;22748;8.426;99.512;2023-03-19T08:06:01;100350.13;;;34.09;43.81
36798;BME280;22748;8.426;99.512;2023-03-19T08:08:31;100351.34;;;34.18;43.58
36798;BME280;22748;8.426;99.512;2023-03-19T08:11:02;100344.94;;;34.08;44.19
36798;BME280;22748;8.426;99.512;2023-03-19T08:13:31;100335.03;;;34.13;44.06
36798;BME280;22748;8.426;99.512;2023-03-19T08:16:06;100340.22;;;34.15;44.31
36798;BME280;22748;8.426;99.512;2023-03-19T08:18:42;100339.19;;;34.21;44.16
36798;BME280;22748;8.426;99.512;2023-03-19T08:21:12;100333.50;;;34.22;43.86
36798;BME280;22748;8.426;99.512;2023-03-19T08:23:45;100324.38;;;34.29;43.74
36798;BME280;22748;8.426;99.512;2023-03-19T08:26:16;100326.00;;;34.30;43.85
36798;BME280;22748;8.426;99.512;2023-03-19T08:28:46;100337.88;;;34.24;43.83
36798;BME280;22748;8.426;99.512;2023-03-19T08:31:18;100333.94;;;34.14;43.48
36798;BME280;22748;8.426;99.512;2023-03-19T08:33:49;100332.38;;;34.18;43.67
36798;BME280;22748;8.426;99.512;2023-03-19T08:36:19;100333.47;;;34.17;43.53
36798;BME280;22748;8.426;99.512;2023-03-19T08:38:50;100340.88;;;34.27;43.67
36798;BME280;22748;8.426;99.512;2023-03-19T08:41:22;100335.53;;;34.32;43.49
36798;BME280;22748;8.426;99.512;2023-03-19T08:43:53;100329.28;;;34.32;43.23
36798;BME280;22748;8.426;99.512;2023-03-19T08:46:25;100335.06;;;34.40;43.08
36798;BME280;22748;8.426;99.512;2023-03-19T08:48:57;100329.19;;;34.49;42.38
36798;BME280;22748;8.426;99.512;2023-03-19T08:51:28;100331.06;;;34.43;42.41
36798;BME280;22748;8.426;99.512;2023-03-19T08:53:59;100323.63;;;34.33;42.52
36798;BME280;22748;8.426;99.512;2023-03-19T08:56:29;100324.91;;;34.26;43.05
36798;BME280;22748;8.426;99.512;2023-03-19T08:59:01;100328.66;;;34.25;43.37
36798;BME280;22748;8.426;99.512;2023-03-19T09:01:33;100324.41;;;34.34;43.29
36798;BME280;22748;8.426;99.512;2023-03-19T09:04:05;100327.09;;;34.29;42.99
36798;BME280;22748;8.426;99.512;2023-03-19T09:06:35;100322.47;;;34.29;42.74
36798;BME280;22748;8.426;99.512;2023-03-19T09:09:09;100313.00;;;34.32;42.61
36798;BME280;22748;8.426;99.512;2023-03-19T09:11:40;100312.97;;;34.27;42.80
36798;BME280;22748;8.426;99.512;2023-03-19T09:14:10;100311.59;;;34.24;42.94
36798;BME280;22748;8.426;99.512;2023-03-19T09:16:46;100309.94;;;34.23;43.15
36798;BME280;22748;8.426;99.512;2023-03-19T09:19:22;100320.72;;;34.18;43.21
36798;BME280;22748;8.426;99.512;2023-03-19T09:21:53;100307.50;;;34.21;43.04
36798;BME280;22748;8.426;99.512;2023-03-19T09:24:23;100309.94;;;34.23;43.20
36798;BME280;22748;8.426;99.512;2023-03-19T09:26:55;100308.50;;;34.15;43.57
36798;BME280;22748;8.426;99.512;2023-03-19T09:29:27;100301.00;;;34.22;43.22
36798;BME280;22748;8.426;99.512;2023-03-19T09:32:00;100301.56;;;34.25;43.21
36798;BME280;22748;8.426;99.512;2023-03-19T09:34:32;100306.22;;;34.29;43.37
36798;BME280;22748;8.426;99.512;2023-03-19T09:37:03;100307.78;;;34.25;43.37
36798;BME280;22748;8.426;99.512;2023-03-19T09:39:35;100299.94;;;34.24;43.57
36798;BME280;22748;8.426;99.512;2023-03-19T09:42:15;100307.97;;;34.18;43.47
36798;BME280;22748;8.426;99.512;2023-03-19T09:44:52;100309.94;;;34.23;43.41
36798;BME280;22748;8.426;99.512;2023-03-19T09:47:33;100305.78;;;34.15;43.78
36798;BME280;22748;8.426;99.512;2023-03-19T09:50:13;100311.53;;;34.19;43.82
36798;BME280;22748;8.426;99.512;2023-03-19T09:52:50;100313.97;;;34.20;43.98
36798;BME280;22748;8.426;99.512;2023-03-19T09:55:37;100310.13;;;34.16;44.15
36798;BME280;22748;8.426;99.512;2023-03-19T09:58:14;100312.25;;;34.14;44.19
36798;BME280;22748;8.426;99.512;2023-03-19T10:00:48;100313.41;;;34.18;43.83
36798;BME280;22748;8.426;99.512;2023-03-19T10:03:36;100309.63;;;34.19;43.74
36798;BME280;22748;8.426;99.512;2023-03-19T10:06:25;100317.34;;;34.28;43.74
36798;BME280;22748;8.426;99.512;2023-03-19T10:09:09;100305.56;;;34.17;43.82
36798;BME280;22748;8.426;99.512;2023-03-19T10:11:53;100310.97;;;34.17;43.99
36798;BME280;22748;8.426;99.512;2023-03-19T10:14:50;100308.31;;;34.22;44.10
36798;BME280;22748;8.426;99.512;2023-03-19T10:17:31;100318.97;;;34.29;44.26
36798;BME280;22748;8.426;99.512;2023-03-19T10:20:11;100317.88;;;34.30;44.34
36798;BME280;22748;8.426;99.512;2023-03-19T10:22:44;100316.81;;;34.31;44.33
36798;BME280;22748;8.426;99.512;2023-03-19T10:25:20;100322.75;;;34.28;44.08
36798;BME280;22748;8.426;99.512;2023-03-19T10:27:58;100326.31;;;34.33;44.47
36798;BME280;22748;8.426;99.512;2023-03-19T10:30:31;100322.81;;;34.33;44.15
36798;BME280;22748;8.426;99.512;2023-03-19T10:33:11;100327.13;;;34.34;44.32
36798;BME280;22748;8.426;99.512;2023-03-19T10:35:50;100320.41;;;34.36;44.28
36798;BME280;22748;8.426;99.512;2023-03-19T10:38:25;100325.19;;;34.29;43.84
36798;BME280;22748;8.426;99.512;2023-03-19T10:41:33;100322.22;;;34.31;44.14
36798;BME280;22748;8.426;99.512;2023-03-19T10:44:14;100327.13;;;34.34;44.11
36798;BME280;22748;8.426;99.512;2023-03-19T10:46:48;100330.69;;;34.34;44.28
36798;BME280;22748;8.426;99.512;2023-03-19T10:49:19;100334.50;;;34.38;44.03
36798;BME280;22748;8.426;99.512;2023-03-19T10:51:52;100333.19;;;34.41;44.07
36798;BME280;22748;8.426;99.512;2023-03-19T10:54:26;100345.19;;;34.45;44.26
36798;BME280;22748;8.426;99.512;2023-03-19T10:56:57;100339.75;;;34.45;44.09
36798;BME280;22748;8.426;99.512;2023-03-19T10:59:31;100335.16;;;34.46;44.12
36798;BME280;22748;8.426;99.512;2023-03-19T11:02:15;100334.34;;;34.45;44.25
36798;BME280;22748;8.426;99.512;2023-03-19T11:04:48;100349.53;;;34.46;44.05
36798;BME280;22748;8.426;99.512;2023-03-19T11:07:37;100341.91;;;34.43;44.13
36798;BME280;22748;8.426;99.512;2023-03-19T11:10:13;100344.84;;;34.41;44.25
36798;BME280;22748;8.426;99.512;2023-03-19T11:12:51;100357.59;;;34.41;44.43
36798;BME280;22748;8.426;99.512;2023-03-19T11:15:30;100356.94;;;34.34;44.38
36798;BME280;22748;8.426;99.512;2023-03-19T11:18:15;100358.03;;;34.33;44.61
36798;BME280;22748;8.426;99.512;2023-03-19T11:20:52;100360.75;;;34.33;44.62
36798;BME280;22748;8.426;99.512;2023-03-19T11:23:28;100366.59;;;34.25;44.77
36798;BME280;22748;8.426;99.512;2023-03-19T11:25:59;100370.88;;;34.20;45.20
36798;BME280;22748;8.426;99.512;2023-03-19T11:28:29;100380.69;;;34.21;45.19
36798;BME280;22748;8.426;99.512;2023-03-19T11:31:07;100390.44;;;34.22;44.67
36798;BME280;22748;8.426;99.512;2023-03-19T11:33:50;100392.56;;;34.20;45.03
36798;BME280;22748;8.426;99.512;2023-03-19T11:36:29;100400.47;;;34.22;44.68
36798;BME280;22748;8.426;99.512;2023-03-19T11:39:15;100397.19;;;34.20;44.50
36798;BME280;22748;8.426;99.512;2023-03-19T11:42:00;100403.13;;;34.17;44.83
36798;BME280;22748;8.426;99.512;2023-03-19T11:44:43;100399.56;;;34.16;45.01
36798;BME280;22748;8.426;99.512;2023-03-19T11:47:27;100399.84;;;34.15;45.34
36798;BME280;22748;8.426;99.512;2023-03-19T11:50:07;100404.41;;;34.14;45.57
36798;BME280;22748;8.426;99.512;2023-03-19T11:52:57;100413.63;;;34.13;46.05
36798;BME280;22748;8.426;99.512;2023-03-19T11:55:37;100417.38;;;34.12;46.05
36798;BME280;22748;8.426;99.512;2023-03-19T11:58:28;100417.63;;;34.11;46.26
36798;BME280;22748;8.426;99.512;2023-03-19T12:01:02;100421.19;;;34.11;46.12
36798;BME280;22748;8.426;99.512;2023-03-19T12:04:20;100414.59;;;34.07;46.73
36798;BME280;22748;8.426;99.512;2023-03-19T12:07:00;100431.41;;;34.09;47.01
36798;BME280;22748;8.426;99.512;2023-03-19T12:09:39;100438.50;;;34.10;47.32
36798;BME280;22748;8.426;99.512;2023-03-19T12:12:19;100440.88;;;34.07;47.12
36798;BME280;22748;8.426;99.512;2023-03-19T12:15:03;100451.38;;;34.03;47.07
36798;BME280;22748;8.426;99.512;2023-03-19T12:18:00;100450.75;;;33.96;47.38
36798;BME280;22748;8.426;99.512;2023-03-19T12:20:45;100455.34;;;33.95;47.62
36798;BME280;22748;8.426;99.512;2023-03-19T12:23:36;100453.44;;;33.96;47.83
36798;BME280;22748;8.426;99.512;2023-03-19T12:26:14;100467.00;;;33.96;47.75
36798;BME280;22748;8.426;99.512;2023-03-19T12:28:55;100453.13;;;33.92;47.48
36798;BME280;22748;8.426;99.512;2023-03-19T12:31:47;100466.66;;;33.92;47.70
36798;BME280;22748;8.426;99.512;2023-03-19T12:34:27;100474.47;;;33.89;47.64
36798;BME280;22748;8.426;99.512;2023-03-19T12:37:16;100483.66;;;33.88;47.81
36798;BME280;22748;8.426;99.512;2023-03-19T12:39:56;100488.84;;;33.89;48.04
36798;BME280;22748;8.426;99.512;2023-03-19T12:42:38;100494.03;;;33.91;47.91
36798;BME280;22748;8.426;99.512;2023-03-19T12:45:23;100500.50;;;33.90;48.14
36798;BME280;22748;8.426;99.512;2023-03-19T12:48:03;100506.41;;;33.87;48.03
36798;BME280;22748;8.426;99.512;2023-03-19T12:50:39;100509.34;;;33.85;48.23
36798;BME280;22748;8.426;99.512;2023-03-19T12:53:18;100521.28;;;33.84;48.35
36798;BME280;22748;8.426;99.512;2023-03-19T12:55:54;100517.13;;;33.81;48.51
36798;BME280;22748;8.426;99.512;2023-03-19T12:58:32;100525.53;;;33.80;48.64
36798;BME280;22748;8.426;99.512;2023-03-19T13:01:11;100523.28;;;33.77;48.80
36798;BME280;22748;8.426;99.512;2023-03-19T13:03:49;100522.31;;;33.66;48.80
36798;BME280;22748;8.426;99.512;2023-03-19T13:06:33;100523.84;;;33.62;48.98
36798;BME280;22748;8.426;99.512;2023-03-19T13:09:10;100528.69;;;33.60;49.01
36798;BME280;22748;8.426;99.512;2023-03-19T13:11:47;100521.66;;;33.59;48.69
36798;BME280;22748;8.426;99.512;2023-03-19T13:14:24;100527.25;;;33.57;49.02
36798;BME280;22748;8.426;99.512;2023-03-19T13:17:27;100535.88;;;33.54;49.43
36798;BME280;22748;8.426;99.512;2023-03-19T13:20:12;100544.81;;;33.55;49.48
36798;BME280;22748;8.426;99.512;2023-03-19T13:22:49;100547.53;;;33.55;49.26
36798;BME280;22748;8.426;99.512;2023-03-19T13:25:24;100547.53;;;33.55;49.17
36798;BME280;22748;8.426;99.512;2023-03-19T13:28:17;100555.88;;;33.53;49.46